Time;durP1;ratioP1;P1;durP2;ratioP2;P2;SDS_P1;SDS_P2;PMS_P1;PMS_P2;Temp;Humidity;BMP_temperature;BMP_pressure;BME280_temperature;BME280_humidity;BME280_pressure;Samples;Min_cycle;Max_cycle;Signal;HPM_P1;HPM_P2
2024/02/10 00:01:50;;;;;;;4.73;1.57;;;10.60;99.90;;;;;;4184143;28;20244;-75
2024/02/10 00:03:52;;;;;;;3.50;1.70;;;10.60;99.90;;;;;;4182053;28;20226;-75
2024/02/10 00:06:00;;;;;;;2.53;1.50;;;10.60;99.90;;;;;;4187320;28;20202;-74
2024/02/10 00:08:02;;;;;;;3.90;1.63;;;10.60;99.90;;;;;;4187953;28;20217;-75
2024/02/10 00:10:07;;;;;;;5.00;1.50;;;10.60;99.90;;;;;;4185865;28;20205;-76
2024/02/10 00:12:10;;;;;;;2.23;1.57;;;10.60;99.90;;;;;;4185843;28;20194;-77
2024/02/10 00:14:12;;;;;;;3.30;1.80;;;10.60;99.90;;;;;;4190407;28;20214;-77
2024/02/10 00:16:15;;;;;;;3.47;1.50;;;10.50;99.90;;;;;;4185977;28;20214;-79
2024/02/10 00:18:18;;;;;;;3.17;1.37;;;10.50;99.90;;;;;;4187745;28;20220;-75
2024/02/10 00:20:25;;;;;;;3.13;1.23;;;10.50;99.90;;;;;;4185760;28;20234;-74
2024/02/10 00:22:28;;;;;;;1.73;0.90;;;10.50;99.90;;;;;;4184873;28;20758;-74
2024/02/10 00:24:30;;;;;;;3.03;1.40;;;10.50;99.90;;;;;;4188360;28;20222;-74
2024/02/10 00:26:33;;;;;;;2.03;1.27;;;10.50;99.90;;;;;;4184446;28;20202;-73
2024/02/10 00:28:35;;;;;;;6.47;1.60;;;10.50;99.90;;;;;;4183872;28;20662;-74
2024/02/10 00:30:37;;;;;;;3.00;1.30;;;10.50;99.90;;;;;;4183024;28;20240;-74
2024/02/10 00:32:38;;;;;;;2.43;1.40;;;10.50;99.90;;;;;;4184430;28;20209;-73
2024/02/10 00:34:41;;;;;;;1.90;1.17;;;10.50;99.90;;;;;;4181679;28;20670;-73
2024/02/10 00:36:44;;;;;;;3.23;1.50;;;10.40;99.90;;;;;;4186885;28;20221;-73
2024/02/10 00:38:48;;;;;;;3.07;1.40;;;10.40;99.90;;;;;;4185505;28;20247;-73
2024/02/10 00:40:49;;;;;;;2.23;1.10;;;10.40;99.90;;;;;;4182530;28;20286;-73
2024/02/10 00:42:52;;;;;;;3.17;1.70;;;10.40;99.90;;;;;;4178648;28;20241;-73
2024/02/10 00:44:53;;;;;;;3.67;1.33;;;10.30;99.90;;;;;;4183133;28;20213;-73
2024/02/10 00:46:57;;;;;;;4.53;1.70;;;10.30;99.90;;;;;;4184250;28;20230;-73
2024/02/10 00:49:01;;;;;;;6.10;1.47;;;10.20;99.90;;;;;;4186288;28;20222;-73
2024/02/10 00:51:05;;;;;;;2.67;1.47;;;10.20;99.90;;;;;;4186456;28;20657;-73
2024/02/10 00:53:08;;;;;;;2.30;1.43;;;10.20;99.90;;;;;;4181538;28;20202;-73
2024/02/10 00:55:11;;;;;;;2.53;1.87;;;10.20;99.90;;;;;;4181009;28;20294;-73
2024/02/10 00:57:13;;;;;;;3.23;1.73;;;10.10;99.90;;;;;;4184520;28;20236;-73
2024/02/10 00:59:17;;;;;;;4.20;1.67;;;10.10;99.90;;;;;;4183184;28;20213;-73
2024/02/10 01:01:21;;;;;;;4.80;1.90;;;10.10;99.90;;;;;;4183508;28;20253;-73
2024/02/10 01:03:23;;;;;;;2.33;1.63;;;10.00;99.90;;;;;;4185365;28;20229;-73
2024/02/10 01:05:25;;;;;;;5.83;1.80;;;10.00;99.90;;;;;;4187288;28;20315;-73
2024/02/10 01:07:30;;;;;;;2.53;1.67;;;10.00;99.90;;;;;;4183996;28;20633;-73
2024/02/10 01:09:32;;;;;;;3.03;1.33;;;10.00;99.90;;;;;;4184391;28;20231;-73
2024/02/10 01:11:41;;;;;;;3.93;2.20;;;10.00;99.90;;;;;;4184195;28;20225;-73
2024/02/10 01:13:45;;;;;;;2.57;1.67;;;10.00;99.90;;;;;;4190336;28;20210;-73
2024/02/10 01:15:50;;;;;;;3.80;1.90;;;10.00;99.90;;;;;;4184188;28;20628;-73
2024/02/10 01:17:52;;;;;;;3.70;1.80;;;9.90;99.90;;;;;;4184190;28;20740;-73
2024/02/10 01:19:54;;;;;;;6.37;2.40;;;9.90;99.90;;;;;;4185809;28;20194;-73
2024/02/10 01:21:56;;;;;;;4.90;1.93;;;9.90;99.90;;;;;;4189775;28;20298;-73
2024/02/10 01:23:59;;;;;;;2.33;1.50;;;9.90;99.90;;;;;;4184362;28;20947;-73
2024/02/10 01:26:01;;;;;;;3.37;1.80;;;9.90;99.90;;;;;;4184954;28;20202;-73
2024/02/10 01:28:08;;;;;;;2.53;1.40;;;9.90;99.90;;;;;;4183405;28;20244;-73
2024/02/10 01:30:10;;;;;;;3.63;1.97;;;9.80;99.90;;;;;;4185808;28;20636;-73
2024/02/10 01:32:15;;;;;;;3.27;1.70;;;9.90;99.90;;;;;;4184496;28;20208;-73
2024/02/10 01:34:17;;;;;;;3.20;1.70;;;9.80;99.90;;;;;;4188486;28;20198;-73
2024/02/10 01:36:20;;;;;;;3.23;1.87;;;9.80;99.90;;;;;;4185205;28;20308;-73
2024/02/10 01:38:21;;;;;;;2.80;1.50;;;9.80;99.90;;;;;;4186873;28;20212;-73
2024/02/10 01:40:23;;;;;;;6.23;1.87;;;9.80;99.90;;;;;;4187680;28;20613;-73
2024/02/10 01:42:37;;;;;;;1.90;1.47;;;9.80;99.90;;;;;;4184376;28;20258;-73
2024/02/10 01:44:43;;;;;;;2.63;1.60;;;9.80;99.90;;;;;;4185162;28;20240;-72
2024/02/10 01:46:45;;;;;;;3.93;1.80;;;9.80;99.90;;;;;;4188318;28;20733;-72
2024/02/10 01:48:48;;;;;;;3.27;1.63;;;9.80;99.90;;;;;;4186806;28;20223;-72
2024/02/10 01:50:50;;;;;;;3.43;1.70;;;9.80;99.90;;;;;;4190687;28;20307;-73
2024/02/10 01:52:52;;;;;;;3.13;1.80;;;9.70;99.90;;;;;;4192625;28;20225;-73
2024/02/10 01:54:54;;;;;;;4.77;1.93;;;9.70;99.90;;;;;;4188984;28;20285;-73
2024/02/10 01:56:57;;;;;;;2.97;1.67;;;9.70;99.90;;;;;;4187828;28;20638;-73
2024/02/10 01:59:00;;;;;;;3.63;1.90;;;9.70;99.90;;;;;;4186778;28;20208;-73
2024/02/10 02:01:04;;;;;;;4.13;1.97;;;9.70;99.90;;;;;;4191740;28;20407;-74
2024/02/10 02:03:06;;;;;;;3.60;2.00;;;9.70;99.90;;;;;;4184442;28;20215;-73
2024/02/10 02:05:07;;;;;;;3.80;1.97;;;9.70;99.90;;;;;;4186017;28;20909;-72
2024/02/10 02:07:09;;;;;;;4.50;2.27;;;9.60;99.90;;;;;;4187780;28;20222;-74
2024/02/10 02:09:12;;;;;;;4.83;2.30;;;9.60;99.90;;;;;;4189007;28;20649;-74
2024/02/10 02:11:13;;;;;;;6.17;2.20;;;9.60;99.90;;;;;;4187818;28;20226;-74
2024/02/10 02:13:17;;;;;;;4.37;2.20;;;9.60;99.90;;;;;;4190937;28;20617;-74
2024/02/10 02:15:20;;;;;;;4.33;2.20;;;9.60;99.90;;;;;;4185643;28;20235;-72
2024/02/10 02:17:24;;;;;;;4.43;2.30;;;9.60;99.90;;;;;;4186060;28;20212;-72
2024/02/10 02:19:27;;;;;;;5.37;2.50;;;9.80;99.90;;;;;;4188702;28;20570;-72
2024/02/10 02:21:32;;;;;;;5.60;2.53;;;9.60;99.90;;;;;;4187708;28;20652;-72
2024/02/10 02:23:36;;;;;;;5.60;2.90;;;9.60;99.90;;;;;;4188305;28;20232;-72
2024/02/10 02:25:38;;;;;;;5.30;2.63;;;9.60;99.90;;;;;;4188078;28;20212;-71
2024/02/10 02:27:40;;;;;;;3.40;2.40;;;9.50;99.90;;;;;;4186649;28;20638;-72
2024/02/10 02:29:42;;;;;;;3.77;2.50;;;9.60;99.90;;;;;;4191461;28;20214;-72
2024/02/10 02:31:45;;;;;;;5.67;2.70;;;9.50;99.90;;;;;;4183152;28;20257;-72
2024/02/10 02:33:47;;;;;;;6.27;2.80;;;9.50;99.90;;;;;;4186347;28;20209;-72
2024/02/10 02:35:50;;;;;;;5.83;2.90;;;9.50;99.90;;;;;;4186254;28;20229;-72
2024/02/10 02:37:55;;;;;;;5.17;2.73;;;9.50;99.90;;;;;;4186257;28;20201;-72
2024/02/10 02:39:58;;;;;;;4.60;2.73;;;9.50;99.90;;;;;;4187105;28;20270;-72
2024/02/10 02:42:03;;;;;;;5.73;2.73;;;9.40;99.90;;;;;;4184568;28;20290;-72
2024/02/10 02:44:14;;;;;;;6.70;2.53;;;9.50;99.90;;;;;;4189168;28;20841;-72
2024/02/10 02:46:16;;;;;;;6.80;2.90;;;9.40;99.90;;;;;;4187498;28;21093;-72
2024/02/10 02:48:18;;;;;;;5.63;2.80;;;9.50;99.90;;;;;;4189478;28;20216;-72
2024/02/10 02:50:24;;;;;;;5.33;2.47;;;9.40;99.90;;;;;;4187001;28;20308;-72
2024/02/10 02:52:27;;;;;;;9.03;2.97;;;9.40;99.90;;;;;;4185405;28;20239;-72
2024/02/10 02:54:31;;;;;;;5.80;3.00;;;9.40;99.90;;;;;;4185128;28;20813;-71
2024/02/10 02:56:34;;;;;;;4.03;2.80;;;9.40;99.90;;;;;;4184825;28;20205;-72
2024/02/10 02:58:36;;;;;;;4.90;2.83;;;9.40;99.90;;;;;;4184988;28;20209;-72
2024/02/10 03:00:38;;;;;;;6.73;2.63;;;9.40;99.90;;;;;;4186745;28;20228;-72
2024/02/10 03:02:41;;;;;;;3.70;2.43;;;9.30;99.90;;;;;;4187600;28;20209;-72
2024/02/10 03:04:43;;;;;;;7.13;2.97;;;9.30;99.90;;;;;;4184907;28;20226;-72
2024/02/10 03:06:46;;;;;;;5.83;2.80;;;9.30;99.90;;;;;;4189938;28;20787;-72
2024/02/10 03:08:48;;;;;;;6.17;2.97;;;9.30;99.90;;;;;;4186945;28;20224;-72
2024/02/10 03:10:50;;;;;;;9.40;3.47;;;9.30;99.90;;;;;;4186576;28;20270;-72
2024/02/10 03:12:55;;;;;;;4.83;2.97;;;9.30;99.90;;;;;;4188613;28;20208;-72
2024/02/10 03:15:00;;;;;;;4.97;2.70;;;9.30;99.90;;;;;;4187045;28;20202;-72
2024/02/10 03:17:06;;;;;;;5.63;2.60;;;9.30;99.90;;;;;;4188225;28;20210;-72
2024/02/10 03:19:08;;;;;;;3.80;2.30;;;9.30;99.90;;;;;;4187113;28;20524;-72
2024/02/10 03:21:10;;;;;;;6.33;3.50;;;9.20;99.90;;;;;;4185907;28;20316;-72
2024/02/10 03:23:13;;;;;;;6.00;3.13;;;9.30;99.90;;;;;;4184972;28;20217;-72
2024/02/10 03:25:15;;;;;;;6.43;3.10;;;9.20;99.90;;;;;;4186195;28;20228;-72
2024/02/10 03:27:17;;;;;;;6.03;3.07;;;9.30;99.90;;;;;;4185032;28;20284;-72
2024/02/10 03:29:21;;;;;;;4.63;2.97;;;9.30;99.90;;;;;;4188506;28;20275;-72
2024/02/10 03:31:23;;;;;;;7.50;3.37;;;9.30;99.90;;;;;;4188107;28;20972;-72
2024/02/10 03:33:24;;;;;;;9.07;3.10;;;9.30;99.90;;;;;;4187407;28;20299;-72
2024/02/10 03:35:27;;;;;;;7.80;3.00;;;9.30;99.90;;;;;;4185150;28;20313;-72
2024/02/10 03:37:29;;;;;;;6.97;3.07;;;9.30;99.90;;;;;;4190679;28;20208;-72
2024/02/10 03:39:31;;;;;;;4.07;2.53;;;9.20;99.90;;;;;;4188105;28;20636;-72
2024/02/10 03:41:32;;;;;;;5.50;2.57;;;9.20;99.90;;;;;;4184935;28;20235;-72
2024/02/10 03:43:34;;;;;;;6.50;2.77;;;9.20;99.90;;;;;;4188308;28;20670;-72
2024/02/10 03:45:38;;;;;;;5.50;2.63;;;9.20;99.90;;;;;;4188029;28;20209;-72
2024/02/10 03:47:43;;;;;;;5.43;3.03;;;9.20;99.90;;;;;;4185899;28;20295;-72
2024/02/10 03:49:46;;;;;;;4.57;2.60;;;9.20;99.90;;;;;;4185813;28;20206;-72
2024/02/10 03:51:48;;;;;;;4.50;2.60;;;9.20;99.90;;;;;;4185174;28;20235;-72
2024/02/10 03:53:52;;;;;;;5.57;3.30;;;9.10;99.90;;;;;;4185897;28;20205;-72
2024/02/10 03:55:56;;;;;;;6.30;2.63;;;9.10;99.90;;;;;;4186338;28;21125;-72
2024/02/10 03:57:59;;;;;;;6.43;2.97;;;9.10;99.90;;;;;;4187094;28;20209;-72
2024/02/10 04:00:01;;;;;;;4.10;2.70;;;9.10;99.90;;;;;;4198740;28;20654;-72
2024/02/10 04:02:04;;;;;;;5.83;3.10;;;9.00;99.90;;;;;;4186982;28;20204;-72
2024/02/10 04:04:05;;;;;;;7.07;3.03;;;9.10;99.90;;;;;;4186379;28;20249;-72
2024/02/10 04:06:09;;;;;;;7.67;2.80;;;9.10;99.90;;;;;;4186763;28;20204;-72
2024/02/10 04:08:10;;;;;;;5.20;2.60;;;9.10;99.90;;;;;;4190868;28;20212;-72
2024/02/10 04:10:13;;;;;;;5.87;2.77;;;9.10;99.90;;;;;;4179893;28;20277;-72
2024/02/10 04:12:17;;;;;;;4.67;2.73;;;9.10;99.90;;;;;;4186417;28;20640;-72
2024/02/10 04:14:20;;;;;;;4.17;2.40;;;9.10;99.90;;;;;;4184622;28;20208;-72
2024/02/10 04:16:22;;;;;;;4.33;2.63;;;9.00;99.90;;;;;;4186859;28;20201;-72
2024/02/10 04:18:28;;;;;;;5.10;2.70;;;9.10;99.90;;;;;;4189093;28;20617;-72
2024/02/10 04:20:30;;;;;;;6.83;2.87;;;9.10;99.90;;;;;;4183229;28;20293;-72
2024/02/10 04:22:31;;;;;;;5.47;2.23;;;9.00;99.90;;;;;;4185909;28;20224;-72
2024/02/10 04:24:33;;;;;;;6.10;2.40;;;9.10;99.90;;;;;;4187374;28;20242;-72
2024/02/10 04:26:35;;;;;;;2.90;2.13;;;9.10;99.90;;;;;;4186111;28;20716;-72
2024/02/10 04:28:37;;;;;;;4.23;2.40;;;9.10;99.90;;;;;;4184702;28;20254;-72
2024/02/10 04:30:40;;;;;;;4.50;2.20;;;9.10;99.90;;;;;;4188095;28;20509;-72
2024/02/10 04:32:46;;;;;;;5.70;2.20;;;9.10;99.90;;;;;;4184713;28;20207;-72
2024/02/10 04:34:49;;;;;;;4.13;2.57;;;9.10;99.90;;;;;;4184684;28;20205;-72
2024/02/10 04:36:51;;;;;;;3.47;2.00;;;9.10;99.90;;;;;;4188301;28;20767;-72
2024/02/10 04:38:53;;;;;;;3.43;2.20;;;9.00;99.90;;;;;;4184101;28;20790;-72
2024/02/10 04:40:57;;;;;;;2.60;1.73;;;9.10;99.90;;;;;;4185917;28;20222;-72
2024/02/10 04:42:59;;;;;;;2.23;1.60;;;9.10;99.90;;;;;;4185196;28;20226;-72
2024/02/10 04:45:00;;;;;;;5.07;2.20;;;9.00;99.90;;;;;;4188477;28;20250;-72
2024/02/10 04:47:02;;;;;;;2.97;2.00;;;9.00;99.90;;;;;;4182276;28;20201;-72
2024/02/10 04:49:06;;;;;;;4.13;1.93;;;9.00;99.90;;;;;;4186024;28;20653;-73
2024/02/10 04:51:09;;;;;;;3.27;1.83;;;9.00;99.90;;;;;;4184325;28;20259;-73
2024/02/10 04:53:11;;;;;;;2.70;1.80;;;9.00;99.90;;;;;;4183961;28;20210;-73
2024/02/10 04:55:13;;;;;;;5.33;2.20;;;9.00;99.90;;;;;;4184222;28;20203;-72
2024/02/10 04:57:15;;;;;;;5.70;2.03;;;9.00;99.90;;;;;;4186323;28;20575;-73
2024/02/10 04:59:26;;;;;;;3.77;1.80;;;9.00;99.90;;;;;;4185747;28;20227;-73
2024/02/10 05:01:31;;;;;;;6.47;1.90;;;9.00;99.90;;;;;;4185280;28;20237;-73
2024/02/10 05:03:35;;;;;;;6.17;1.90;;;9.00;99.90;;;;;;4186768;28;20196;-73
2024/02/10 05:05:36;;;;;;;2.77;1.90;;;9.00;99.90;;;;;;4182874;28;20312;-73
2024/02/10 05:07:45;;;;;;;2.33;1.53;;;9.00;99.90;;;;;;4184694;28;20204;-72
2024/02/10 05:09:47;;;;;;;2.03;1.40;;;9.00;99.90;;;;;;4184570;28;20338;-72
2024/02/10 05:11:49;;;;;;;3.30;1.60;;;9.00;99.90;;;;;;4185893;28;20262;-73
2024/02/10 05:13:51;;;;;;;6.17;1.67;;;9.00;99.90;;;;;;4186843;28;20205;-73
2024/02/10 05:15:53;;;;;;;4.63;1.70;;;9.00;99.90;;;;;;4187444;28;20265;-73
2024/02/10 05:17:55;;;;;;;3.87;1.60;;;9.00;99.90;;;;;;4187097;28;20209;-72
2024/02/10 05:19:56;;;;;;;3.20;1.87;;;9.00;99.90;;;;;;4186238;28;20236;-73
2024/02/10 05:21:58;;;;;;;2.00;1.47;;;9.00;99.90;;;;;;4184575;28;20229;-73
2024/02/10 05:24:07;;;;;;;2.83;1.63;;;9.00;99.90;;;;;;4185425;28;20217;-73
2024/02/10 05:26:09;;;;;;;3.07;1.30;;;9.00;99.90;;;;;;4186311;28;20216;-72
2024/02/10 05:28:11;;;;;;;4.13;1.63;;;9.00;99.90;;;;;;4185056;28;20200;-73
2024/02/10 05:30:19;;;;;;;2.73;1.63;;;9.00;99.90;;;;;;4184784;28;20203;-73
2024/02/10 05:32:22;;;;;;;1.67;1.40;;;9.00;99.90;;;;;;4182354;28;20599;-73
2024/02/10 05:34:24;;;;;;;3.03;1.57;;;9.00;99.90;;;;;;4187280;28;20205;-72
2024/02/10 05:36:26;;;;;;;3.43;1.40;;;9.00;99.90;;;;;;4187835;28;20204;-73
2024/02/10 05:38:28;;;;;;;2.80;1.47;;;9.00;99.90;;;;;;4182873;28;20206;-73
2024/02/10 05:40:31;;;;;;;3.20;1.70;;;9.00;99.90;;;;;;4183441;28;20217;-72
2024/02/10 05:42:32;;;;;;;4.43;1.83;;;9.00;99.90;;;;;;4184558;28;20279;-73
2024/02/10 05:44:35;;;;;;;4.87;1.77;;;9.00;99.90;;;;;;4184816;28;20225;-72
2024/02/10 05:46:37;;;;;;;4.97;1.80;;;9.00;99.90;;;;;;4185296;28;20211;-73
2024/02/10 05:48:39;;;;;;;3.30;1.97;;;9.00;99.90;;;;;;4184194;28;20213;-73
2024/02/10 05:50:41;;;;;;;5.57;1.97;;;9.10;99.90;;;;;;4184825;28;20307;-73
2024/02/10 05:52:42;;;;;;;4.63;2.23;;;9.00;99.90;;;;;;4185485;28;20209;-73
2024/02/10 05:54:44;;;;;;;3.67;1.73;;;9.00;99.90;;;;;;4184604;28;20217;-77
2024/02/10 05:56:48;;;;;;;2.30;1.77;;;9.00;99.90;;;;;;4186942;28;20204;-73
2024/02/10 05:58:50;;;;;;;5.53;2.07;;;9.00;99.90;;;;;;4182343;28;20219;-73
2024/02/10 06:00:51;;;;;;;2.70;1.70;;;9.10;99.90;;;;;;4184920;28;20226;-73
2024/02/10 06:02:53;;;;;;;5.33;1.70;;;9.00;99.90;;;;;;4184876;28;20205;-73
2024/02/10 06:04:54;;;;;;;3.47;1.77;;;9.00;99.90;;;;;;4186660;28;20712;-73
2024/02/10 06:06:59;;;;;;;3.00;1.87;;;9.00;99.90;;;;;;4186332;28;20280;-73
2024/02/10 06:09:01;;;;;;;3.83;2.10;;;9.10;99.90;;;;;;4184982;28;20668;-73
2024/02/10 06:11:03;;;;;;;3.33;1.70;;;9.10;99.90;;;;;;4183271;28;20236;-73
2024/02/10 06:13:06;;;;;;;2.77;1.70;;;9.10;99.90;;;;;;4184081;28;20217;-73
2024/02/10 06:15:10;;;;;;;3.40;1.80;;;9.00;99.90;;;;;;4186092;28;20660;-73
2024/02/10 06:17:12;;;;;;;4.80;1.70;;;9.10;99.90;;;;;;4181389;28;20200;-72
2024/02/10 06:19:14;;;;;;;7.83;3.77;;;9.10;99.90;;;;;;4183276;28;20201;-73
2024/02/10 06:21:16;;;;;;;14.23;7.90;;;9.10;99.90;;;;;;4182199;28;20235;-73
2024/02/10 06:23:25;;;;;;;16.23;8.10;;;9.10;99.90;;;;;;4183781;28;20711;-73
2024/02/10 06:25:27;;;;;;;10.13;4.73;;;9.10;99.90;;;;;;4185562;28;20766;-73
2024/02/10 06:27:34;;;;;;;5.07;2.93;;;9.10;99.90;;;;;;4185635;28;20223;-73
2024/02/10 06:29:37;;;;;;;8.53;2.60;;;9.10;99.90;;;;;;4182213;28;20270;-73
2024/02/10 06:31:42;;;;;;;10.77;2.23;;;9.10;99.90;;;;;;4181924;28;20290;-73
2024/02/10 06:33:48;;;;;;;3.20;2.17;;;9.10;99.90;;;;;;4186732;28;20205;-73
2024/02/10 06:35:51;;;;;;;4.23;2.10;;;9.10;99.90;;;;;;4184920;28;20793;-72
2024/02/10 06:37:54;;;;;;;6.30;2.13;;;9.10;99.90;;;;;;4186322;28;20209;-73
2024/02/10 06:39:56;;;;;;;4.40;2.30;;;9.10;99.90;;;;;;4187707;28;20210;-73
2024/02/10 06:41:59;;;;;;;3.07;2.10;;;9.10;99.90;;;;;;4184489;28;20235;-73
2024/02/10 06:44:01;;;;;;;4.90;2.53;;;9.10;99.90;;;;;;4185562;28;20204;-73
2024/02/10 06:46:05;;;;;;;8.10;2.77;;;9.10;99.90;;;;;;4186205;28;20836;-73
2024/02/10 06:48:11;;;;;;;4.20;2.40;;;9.10;99.90;;;;;;4184633;28;20209;-72
2024/02/10 06:50:14;;;;;;;3.53;2.33;;;9.20;99.90;;;;;;4187628;28;20236;-73
2024/02/10 06:52:19;;;;;;;4.87;2.80;;;9.20;99.90;;;;;;4186171;28;20279;-72
2024/02/10 06:54:21;;;;;;;4.27;2.70;;;9.10;99.90;;;;;;4186555;28;20213;-73
2024/02/10 06:56:23;;;;;;;3.17;2.37;;;9.10;99.90;;;;;;4186962;28;20708;-73
2024/02/10 06:58:26;;;;;;;5.40;2.60;;;9.20;99.90;;;;;;4187865;28;20236;-73
2024/02/10 07:00:28;;;;;;;5.07;2.80;;;9.10;99.90;;;;;;4183298;28;20233;-72
2024/02/10 07:02:31;;;;;;;5.10;2.77;;;9.20;99.90;;;;;;4184552;28;20281;-73
2024/02/10 07:04:37;;;;;;;4.60;2.60;;;9.20;99.90;;;;;;4188041;28;20280;-73
2024/02/10 07:06:39;;;;;;;6.07;2.70;;;9.20;99.90;;;;;;4186273;28;20312;-72
2024/02/10 07:08:40;;;;;;;5.53;2.60;;;9.20;99.90;;;;;;4188927;28;20299;-73
2024/02/10 07:10:45;;;;;;;6.77;3.10;;;9.20;99.90;;;;;;4189173;28;20237;-72
2024/02/10 07:12:52;;;;;;;6.87;3.23;;;9.20;99.90;;;;;;4186639;28;20201;-73
2024/02/10 07:14:56;;;;;;;6.30;3.13;;;9.30;99.90;;;;;;4185639;28;20202;-73
2024/02/10 07:16:57;;;;;;;4.83;3.30;;;9.20;99.90;;;;;;4183785;28;20292;-73
2024/02/10 07:19:00;;;;;;;5.93;3.47;;;9.20;99.90;;;;;;4185147;28;20644;-73
2024/02/10 07:21:02;;;;;;;5.90;3.63;;;9.30;99.90;;;;;;4186869;28;20767;-73
2024/02/10 07:23:04;;;;;;;7.63;4.20;;;9.20;99.90;;;;;;4187012;28;20875;-73
2024/02/10 07:25:07;;;;;;;7.33;3.43;;;9.30;99.90;;;;;;4185554;28;20227;-72
2024/02/10 07:27:11;;;;;;;5.23;3.23;;;9.30;99.90;;;;;;4185659;28;20622;-73
2024/02/10 07:29:13;;;;;;;5.87;3.20;;;9.30;99.90;;;;;;4185797;28;20703;-73
2024/02/10 07:31:16;;;;;;;5.13;3.43;;;9.30;99.90;;;;;;4184359;28;20261;-73
2024/02/10 07:33:18;;;;;;;6.27;2.80;;;9.40;99.90;;;;;;4184930;28;20620;-73
2024/02/10 07:35:22;;;;;;;5.60;2.90;;;9.40;99.90;;;;;;4186453;28;20659;-73
2024/02/10 07:37:27;;;;;;;6.30;3.40;;;9.40;99.90;;;;;;4203237;28;20217;-73
2024/02/10 07:39:29;;;;;;;5.30;2.97;;;9.40;99.90;;;;;;4179772;28;20658;-73
2024/02/10 07:41:30;;;;;;;6.93;3.30;;;9.40;99.90;;;;;;4187580;28;20915;-73
2024/02/10 07:43:32;;;;;;;5.27;2.97;;;9.50;99.90;;;;;;4185914;28;20255;-74
2024/02/10 07:45:34;;;;;;;8.33;3.80;;;9.50;99.90;;;;;;4182155;28;20312;-74
2024/02/10 07:47:39;;;;;;;6.13;3.80;;;9.50;99.90;;;;;;4187978;28;20244;-74
2024/02/10 07:49:44;;;;;;;6.83;3.80;;;9.50;99.90;;;;;;4186899;28;20281;-74
2024/02/10 07:51:47;;;;;;;7.40;3.40;;;9.50;99.90;;;;;;4185306;28;20296;-73
2024/02/10 07:53:49;;;;;;;6.33;3.23;;;9.40;99.90;;;;;;4182684;28;20241;-74
2024/02/10 07:55:52;;;;;;;8.40;3.80;;;9.50;99.90;;;;;;4186166;28;20682;-74
2024/02/10 07:57:56;;;;;;;5.00;3.23;;;9.50;99.90;;;;;;4183411;28;20202;-73
2024/02/10 07:59:58;;;;;;;8.57;3.20;;;9.50;99.90;;;;;;4184904;28;20233;-73
2024/02/10 08:02:00;;;;;;;5.27;3.37;;;9.50;99.90;;;;;;4182765;28;20234;-72
2024/02/10 08:04:04;;;;;;;4.90;3.00;;;9.60;99.90;;;;;;4188470;28;20288;-73
2024/02/10 08:06:07;;;;;;;5.50;3.13;;;9.60;99.90;;;;;;4183719;28;20698;-73
2024/02/10 08:08:10;;;;;;;6.37;3.13;;;9.60;99.90;;;;;;4185963;28;20218;-72
2024/02/10 08:10:12;;;;;;;6.60;3.20;;;9.60;99.90;;;;;;4186528;28;20213;-72
2024/02/10 08:12:17;;;;;;;5.33;2.90;;;9.60;99.90;;;;;;4184789;28;20206;-73
2024/02/10 08:14:20;;;;;;;6.77;3.43;;;9.70;99.90;;;;;;4199709;28;20209;-72
2024/02/10 08:16:25;;;;;;;6.00;2.90;;;9.70;99.90;;;;;;4182422;28;20580;-73
2024/02/10 08:18:27;;;;;;;6.47;3.20;;;9.70;99.90;;;;;;4184769;28;20221;-73
2024/02/10 08:20:28;;;;;;;4.57;3.10;;;9.70;99.90;;;;;;4182859;28;20299;-73
2024/02/10 08:22:32;;;;;;;4.97;3.20;;;9.70;99.90;;;;;;4186027;28;20205;-74
2024/02/10 08:24:38;;;;;;;5.33;2.93;;;9.70;99.90;;;;;;4181180;28;20284;-74
2024/02/10 08:26:39;;;;;;;5.33;3.00;;;9.80;99.90;;;;;;4185797;28;20253;-73
2024/02/10 08:28:41;;;;;;;6.57;3.23;;;9.80;99.90;;;;;;4185124;28;20221;-73
2024/02/10 08:30:44;;;;;;;5.27;3.47;;;9.80;99.90;;;;;;4183453;28;20280;-73
2024/02/10 08:32:46;;;;;;;6.60;3.13;;;9.80;99.90;;;;;;4184081;28;20300;-73
2024/02/10 08:34:48;;;;;;;6.37;2.97;;;9.80;99.90;;;;;;4183762;28;20217;-73
2024/02/10 08:36:52;;;;;;;5.93;3.20;;;9.90;99.90;;;;;;4186878;28;20275;-73
2024/02/10 08:38:56;;;;;;;8.63;3.73;;;9.90;99.90;;;;;;4184908;28;20210;-73
2024/02/10 08:40:59;;;;;;;6.47;3.30;;;9.90;99.90;;;;;;4185281;28;20308;-74
2024/02/10 08:43:01;;;;;;;7.13;3.37;;;9.90;99.90;;;;;;4184180;28;20275;-73
2024/02/10 08:45:05;;;;;;;7.80;3.20;;;10.00;99.90;;;;;;4184677;28;20415;-73
2024/02/10 08:47:07;;;;;;;5.40;2.90;;;10.00;99.90;;;;;;4185801;28;20595;-73
2024/02/10 08:49:11;;;;;;;5.57;3.27;;;10.00;99.90;;;;;;4187984;28;20229;-73
2024/02/10 08:51:13;;;;;;;6.00;3.10;;;10.00;99.90;;;;;;4186674;28;20225;-73
2024/02/10 08:53:16;;;;;;;6.30;3.40;;;10.00;99.90;;;;;;4196818;28;20304;-73
2024/02/10 08:55:18;;;;;;;5.70;3.27;;;10.00;99.90;;;;;;4183521;28;20780;-73
2024/02/10 08:57:25;;;;;;;5.73;3.13;;;10.00;99.90;;;;;;4183426;28;20289;-73
2024/02/10 08:59:31;;;;;;;6.10;3.53;;;9.90;99.90;;;;;;4185310;28;20210;-73
2024/02/10 09:01:33;;;;;;;5.97;3.13;;;10.00;99.90;;;;;;4183134;28;20239;-73
2024/02/10 09:03:35;;;;;;;4.27;3.13;;;10.00;99.90;;;;;;4183515;28;20217;-73
2024/02/10 09:05:40;;;;;;;9.23;3.47;;;10.00;99.90;;;;;;4183609;28;20291;-73
2024/02/10 09:07:42;;;;;;;7.30;3.53;;;10.00;99.90;;;;;;4180878;28;20300;-74
2024/02/10 09:09:45;;;;;;;6.23;3.63;;;9.90;99.90;;;;;;4182229;28;20198;-74
2024/02/10 09:11:47;;;;;;;4.20;2.90;;;9.90;99.90;;;;;;4182994;28;20261;-73
2024/02/10 09:13:52;;;;;;;7.67;3.30;;;9.90;99.90;;;;;;4182882;28;20199;-74
2024/02/10 09:15:54;;;;;;;6.80;3.27;;;10.00;99.90;;;;;;4185649;28;20281;-74
2024/02/10 09:17:55;;;;;;;9.87;3.90;;;10.00;99.90;;;;;;4184051;28;20224;-75
2024/02/10 09:19:57;;;;;;;5.97;3.50;;;10.00;99.90;;;;;;4186146;28;20205;-77
2024/02/10 09:21:59;;;;;;;6.70;3.70;;;10.00;99.90;;;;;;4186428;28;20309;-75
2024/02/10 09:24:02;;;;;;;6.67;3.77;;;10.00;99.90;;;;;;4184480;28;20660;-74
2024/02/10 09:26:04;;;;;;;5.97;3.67;;;10.00;99.90;;;;;;4185249;28;20225;-74
2024/02/10 09:28:05;;;;;;;5.47;3.50;;;10.00;99.90;;;;;;4186220;28;20237;-74
2024/02/10 09:30:11;;;;;;;5.40;3.73;;;10.00;99.90;;;;;;4182021;28;20221;-75
2024/02/10 09:32:14;;;;;;;6.83;4.03;;;10.00;99.90;;;;;;4181486;28;20677;-75
2024/02/10 09:34:17;;;;;;;8.47;3.93;;;10.00;99.90;;;;;;4183061;28;20202;-75
2024/02/10 09:36:19;;;;;;;8.70;4.10;;;10.00;99.90;;;;;;4181376;28;20237;-75
2024/02/10 09:38:22;;;;;;;9.50;4.60;;;10.00;99.90;;;;;;4186768;28;20205;-75
2024/02/10 09:40:24;;;;;;;7.40;3.90;;;10.00;99.90;;;;;;4182569;28;20293;-73
2024/02/10 09:42:31;;;;;;;6.90;4.00;;;10.10;99.90;;;;;;4183122;28;20692;-74
2024/02/10 09:44:33;;;;;;;6.63;4.27;;;10.10;99.90;;;;;;4184872;28;20292;-74
2024/02/10 09:46:36;;;;;;;8.37;4.13;;;10.10;99.90;;;;;;4184366;28;20222;-74
2024/02/10 09:48:41;;;;;;;9.07;4.43;;;10.10;99.90;;;;;;4182080;28;20213;-74
2024/02/10 09:50:43;;;;;;;8.60;4.17;;;10.10;99.90;;;;;;4183529;28;20638;-74
2024/02/10 09:52:47;;;;;;;8.30;4.03;;;10.20;99.90;;;;;;4183491;28;20264;-74
2024/02/10 09:54:49;;;;;;;7.10;3.77;;;10.20;99.90;;;;;;4185590;28;20199;-74
2024/02/10 09:56:51;;;;;;;6.97;4.00;;;10.20;99.90;;;;;;4185372;28;20232;-74
2024/02/10 09:58:54;;;;;;;6.13;3.93;;;10.30;99.90;;;;;;4184364;28;20237;-74
2024/02/10 10:00:55;;;;;;;7.30;3.40;;;10.30;99.90;;;;;;4179505;28;20309;-74
2024/02/10 10:03:00;;;;;;;6.13;3.40;;;10.40;99.90;;;;;;4183614;28;20198;-80
2024/02/10 10:05:01;;;;;;;7.03;3.83;;;10.40;99.90;;;;;;4188854;28;20202;-76
2024/02/10 10:07:08;;;;;;;7.67;3.70;;;10.50;99.90;;;;;;4189644;28;20296;-77
2024/02/10 10:09:11;;;;;;;6.57;3.00;;;10.60;99.90;;;;;;4188722;28;20210;-75
2024/02/10 10:11:12;;;;;;;6.57;3.27;;;10.70;99.90;;;;;;4186815;28;20230;-76
2024/02/10 10:13:13;;;;;;;4.57;2.90;;;10.80;99.90;;;;;;4189441;28;20206;-75
2024/02/10 10:15:18;;;;;;;5.47;2.90;;;10.90;99.90;;;;;;4188455;28;20669;-75
2024/02/10 10:17:19;;;;;;;7.10;3.47;;;11.00;99.90;;;;;;4192523;28;20194;-75
2024/02/10 10:19:26;;;;;;;5.90;3.30;;;11.10;99.90;;;;;;4188255;28;20309;-75
2024/02/10 10:21:30;;;;;;;8.50;3.70;;;11.10;99.90;;;;;;4187638;28;20227;-73
2024/02/10 10:23:33;;;;;;;6.23;3.30;;;11.20;99.90;;;;;;4189348;28;20194;-73
2024/02/10 10:25:36;;;;;;;8.80;3.93;;;11.30;99.90;;;;;;4187636;28;20203;-73
2024/02/10 10:27:39;;;;;;;5.37;3.07;;;11.30;99.90;;;;;;4190636;28;20217;-75
2024/02/10 10:29:45;;;;;;;4.67;3.00;;;11.30;99.90;;;;;;4188696;28;20207;-74
2024/02/10 10:31:48;;;;;;;6.07;3.00;;;11.40;99.90;;;;;;4192098;28;20226;-74
2024/02/10 10:33:51;;;;;;;10.13;3.07;;;11.40;99.90;;;;;;4192679;28;20549;-74
2024/02/10 10:35:55;;;;;;;6.63;3.10;;;11.40;99.90;;;;;;4189763;28;20216;-74
2024/02/10 10:37:57;;;;;;;10.07;3.43;;;11.40;99.90;;;;;;4188529;28;20281;-73
2024/02/10 10:40:00;;;;;;;6.33;3.00;;;11.40;99.90;;;;;;4183229;28;20250;-75
2024/02/10 10:42:03;;;;;;;5.80;2.73;;;11.40;99.90;;;;;;4185986;28;20229;-75
2024/02/10 10:44:06;;;;;;;6.77;3.07;;;11.40;99.90;;;;;;4188839;28;20615;-75
2024/02/10 10:46:08;;;;;;;7.17;3.00;;;11.50;99.90;;;;;;4184978;28;20301;-76